<?xml version="1.0" encoding="UTF-8"?><gpx creator="Wikiloc - https://www.wikiloc.com" version="1.1" xmlns="http://www.topografix.com/GPX/1/1" xmlns:xsi="http://www.w3.org/2001/XMLSchema-instance" xsi:schemaLocation="http://www.topografix.com/GPX/1/1 http://www.topografix.com/GPX/1/1/gpx.xsd"><metadata><name>Wikiloc - Embalse de Aguilar – Playa</name><author><name>morcillo</name><link href="https://www.wikiloc.com/wikiloc/user.do?id=219597"><text>morcillo on Wikiloc</text></link></author><link href="https://www.wikiloc.com/walking-trails/embalse-de-aguilar-playa-215651354"><text>Embalse de Aguilar – Playa on Wikiloc</text></link><time>2025-04-20T12:08:12Z</time></metadata><wpt lat="42.785944" lon="-4.300368"><ele>947.4</ele><time>2025-04-20T11:24:01Z</time><name>CAMPING MONTE ROYA-inicio/llegada</name><cmt></cmt><desc></desc></wpt><wpt lat="42.787185" lon="-4.299185"><ele>940.5</ele><time>2025-04-20T11:36:13Z</time><name>EMBARCADERO</name><cmt></cmt><desc></desc></wpt><wpt lat="42.786590" lon="-4.301168"><ele>951.8</ele><time>2025-04-20T11:28:49Z</time><name>ERMITA DE LA VIRGEN DE LLANO</name><cmt></cmt><desc></desc></wpt><wpt lat="42.787940" lon="-4.301913"><ele>941.2</ele><time>2025-04-20T11:41:00Z</time><name>PLAYA DEL EMBALSE DE AGUILAR</name><cmt></cmt><desc></desc></wpt><trk><name>Embalse de Aguilar – Playa - Wikiloc</name><cmt></cmt><desc></desc><trkseg><trkpt lat="42.785971" lon="-4.300319"><ele>947.592</ele><time>2025-04-20T11:24:35Z</time></trkpt><trkpt lat="42.785971" lon="-4.300319"><ele>947.573</ele><time>2025-04-20T11:24:36Z</time></trkpt><trkpt lat="42.785971" lon="-4.300319"><ele>947.520</ele><time>2025-04-20T11:24:37Z</time></trkpt><trkpt lat="42.786004" lon="-4.300255"><ele>947.609</ele><time>2025-04-20T11:24:46Z</time></trkpt><trkpt lat="42.786028" lon="-4.300164"><ele>947.791</ele><time>2025-04-20T11:24:54Z</time></trkpt><trkpt lat="42.786022" lon="-4.300122"><ele>947.740</ele><time>2025-04-20T11:25:02Z</time></trkpt><trkpt lat="42.786024" lon="-4.300081"><ele>947.764</ele><time>2025-04-20T11:25:08Z</time></trkpt><trkpt lat="42.786031" lon="-4.300055"><ele>947.785</ele><time>2025-04-20T11:25:10Z</time></trkpt><trkpt lat="42.786051" lon="-4.300022"><ele>947.824</ele><time>2025-04-20T11:25:19Z</time></trkpt><trkpt lat="42.786111" lon="-4.299962"><ele>947.930</ele><time>2025-04-20T11:25:28Z</time></trkpt><trkpt lat="42.786146" lon="-4.299926"><ele>947.762</ele><time>2025-04-20T11:25:37Z</time></trkpt><trkpt lat="42.786172" lon="-4.299981"><ele>947.944</ele><time>2025-04-20T11:25:43Z</time></trkpt><trkpt lat="42.786225" lon="-4.300056"><ele>948.173</ele><time>2025-04-20T11:25:54Z</time></trkpt><trkpt lat="42.786325" lon="-4.300171"><ele>948.556</ele><time>2025-04-20T11:26:12Z</time></trkpt><trkpt lat="42.786381" lon="-4.300304"><ele>949.159</ele><time>2025-04-20T11:26:26Z</time></trkpt><trkpt lat="42.786453" lon="-4.300469"><ele>949.714</ele><time>2025-04-20T11:26:43Z</time></trkpt><trkpt lat="42.786483" lon="-4.300670"><ele>950.409</ele><time>2025-04-20T11:26:56Z</time></trkpt><trkpt lat="42.786505" lon="-4.300825"><ele>951.057</ele><time>2025-04-20T11:27:08Z</time></trkpt><trkpt lat="42.786464" lon="-4.300833"><ele>951.066</ele><time>2025-04-20T11:27:16Z</time></trkpt><trkpt lat="42.786439" lon="-4.300872"><ele>951.060</ele><time>2025-04-20T11:27:20Z</time></trkpt><trkpt lat="42.786415" lon="-4.300904"><ele>951.091</ele><time>2025-04-20T11:27:22Z</time></trkpt><trkpt lat="42.786413" lon="-4.301091"><ele>951.190</ele><time>2025-04-20T11:27:33Z</time></trkpt><trkpt lat="42.786396" lon="-4.301283"><ele>951.696</ele><time>2025-04-20T11:27:44Z</time></trkpt><trkpt lat="42.786427" lon="-4.301263"><ele>951.698</ele><time>2025-04-20T11:27:53Z</time></trkpt><trkpt lat="42.786436" lon="-4.301313"><ele>951.820</ele><time>2025-04-20T11:27:57Z</time></trkpt><trkpt lat="42.786473" lon="-4.301345"><ele>951.929</ele><time>2025-04-20T11:28:08Z</time></trkpt><trkpt lat="42.786527" lon="-4.301295"><ele>951.845</ele><time>2025-04-20T11:28:16Z</time></trkpt><trkpt lat="42.786525" lon="-4.301242"><ele>951.747</ele><time>2025-04-20T11:28:20Z</time></trkpt><trkpt lat="42.786533" lon="-4.301214"><ele>951.711</ele><time>2025-04-20T11:28:27Z</time></trkpt><trkpt lat="42.786572" lon="-4.301171"><ele>951.709</ele><time>2025-04-20T11:28:35Z</time></trkpt><trkpt lat="42.786595" lon="-4.301166"><ele>951.846</ele><time>2025-04-20T11:28:42Z</time></trkpt><trkpt lat="42.786589" lon="-4.301171"><ele>951.885</ele><time>2025-04-20T11:28:48Z</time></trkpt><trkpt lat="42.786615" lon="-4.301163"><ele>951.839</ele><time>2025-04-20T11:28:54Z</time></trkpt><trkpt lat="42.786656" lon="-4.301119"><ele>952.010</ele><time>2025-04-20T11:29:03Z</time></trkpt><trkpt lat="42.786681" lon="-4.301060"><ele>951.749</ele><time>2025-04-20T11:29:14Z</time></trkpt><trkpt lat="42.786661" lon="-4.301104"><ele>952.045</ele><time>2025-04-20T11:29:23Z</time></trkpt><trkpt lat="42.786648" lon="-4.301124"><ele>951.917</ele><time>2025-04-20T11:29:32Z</time></trkpt><trkpt lat="42.786617" lon="-4.301147"><ele>951.899</ele><time>2025-04-20T11:29:37Z</time></trkpt><trkpt lat="42.786607" lon="-4.301163"><ele>951.888</ele><time>2025-04-20T11:29:42Z</time></trkpt><trkpt lat="42.786593" lon="-4.301286"><ele>951.917</ele><time>2025-04-20T11:29:51Z</time></trkpt><trkpt lat="42.786661" lon="-4.301279"><ele>952.087</ele><time>2025-04-20T11:30:01Z</time></trkpt><trkpt lat="42.786689" lon="-4.301260"><ele>951.815</ele><time>2025-04-20T11:30:12Z</time></trkpt><trkpt lat="42.786695" lon="-4.301249"><ele>951.809</ele><time>2025-04-20T11:30:20Z</time></trkpt><trkpt lat="42.786703" lon="-4.301272"><ele>951.773</ele><time>2025-04-20T11:30:34Z</time></trkpt><trkpt lat="42.786691" lon="-4.301362"><ele>951.832</ele><time>2025-04-20T11:30:45Z</time></trkpt><trkpt lat="42.786671" lon="-4.301457"><ele>952.296</ele><time>2025-04-20T11:30:57Z</time></trkpt><trkpt lat="42.786669" lon="-4.301528"><ele>952.567</ele><time>2025-04-20T11:31:10Z</time></trkpt><trkpt lat="42.786704" lon="-4.301572"><ele>952.346</ele><time>2025-04-20T11:31:21Z</time></trkpt><trkpt lat="42.786708" lon="-4.301575"><ele>952.372</ele><time>2025-04-20T11:31:29Z</time></trkpt><trkpt lat="42.786728" lon="-4.301585"><ele>952.194</ele><time>2025-04-20T11:31:33Z</time></trkpt><trkpt lat="42.786735" lon="-4.301597"><ele>952.196</ele><time>2025-04-20T11:31:34Z</time></trkpt><trkpt lat="42.786741" lon="-4.301596"><ele>952.085</ele><time>2025-04-20T11:31:38Z</time></trkpt><trkpt lat="42.786777" lon="-4.301607"><ele>951.752</ele><time>2025-04-20T11:31:43Z</time></trkpt><trkpt lat="42.786857" lon="-4.301628"><ele>950.953</ele><time>2025-04-20T11:31:51Z</time></trkpt><trkpt lat="42.786948" lon="-4.301640"><ele>950.008</ele><time>2025-04-20T11:31:59Z</time></trkpt><trkpt lat="42.787023" lon="-4.301657"><ele>949.409</ele><time>2025-04-20T11:32:07Z</time></trkpt><trkpt lat="42.787081" lon="-4.301642"><ele>949.087</ele><time>2025-04-20T11:32:13Z</time></trkpt><trkpt lat="42.787100" lon="-4.301619"><ele>948.816</ele><time>2025-04-20T11:32:15Z</time></trkpt><trkpt lat="42.787105" lon="-4.301606"><ele>948.770</ele><time>2025-04-20T11:32:16Z</time></trkpt><trkpt lat="42.787140" lon="-4.301470"><ele>948.111</ele><time>2025-04-20T11:32:27Z</time></trkpt><trkpt lat="42.787152" lon="-4.301326"><ele>947.860</ele><time>2025-04-20T11:32:38Z</time></trkpt><trkpt lat="42.787165" lon="-4.301263"><ele>947.616</ele><time>2025-04-20T11:32:44Z</time></trkpt><trkpt lat="42.787169" lon="-4.301143"><ele>947.688</ele><time>2025-04-20T11:32:54Z</time></trkpt><trkpt lat="42.787173" lon="-4.300973"><ele>947.020</ele><time>2025-04-20T11:33:06Z</time></trkpt><trkpt lat="42.787165" lon="-4.300767"><ele>946.389</ele><time>2025-04-20T11:33:20Z</time></trkpt><trkpt lat="42.787170" lon="-4.300585"><ele>945.557</ele><time>2025-04-20T11:33:33Z</time></trkpt><trkpt lat="42.787198" lon="-4.300437"><ele>944.800</ele><time>2025-04-20T11:33:44Z</time></trkpt><trkpt lat="42.787198" lon="-4.300299"><ele>944.320</ele><time>2025-04-20T11:33:54Z</time></trkpt><trkpt lat="42.787185" lon="-4.300163"><ele>944.009</ele><time>2025-04-20T11:34:05Z</time></trkpt><trkpt lat="42.787145" lon="-4.300137"><ele>944.327</ele><time>2025-04-20T11:34:21Z</time></trkpt><trkpt lat="42.787146" lon="-4.300140"><ele>944.346</ele><time>2025-04-20T11:34:46Z</time></trkpt><trkpt lat="42.787152" lon="-4.300131"><ele>944.230</ele><time>2025-04-20T11:35:04Z</time></trkpt><trkpt lat="42.787189" lon="-4.299927"><ele>943.161</ele><time>2025-04-20T11:35:23Z</time></trkpt><trkpt lat="42.787208" lon="-4.299636"><ele>941.810</ele><time>2025-04-20T11:35:42Z</time></trkpt><trkpt lat="42.787211" lon="-4.299381"><ele>940.926</ele><time>2025-04-20T11:35:57Z</time></trkpt><trkpt lat="42.787210" lon="-4.299325"><ele>940.738</ele><time>2025-04-20T11:36:02Z</time></trkpt><trkpt lat="42.787208" lon="-4.299288"><ele>940.680</ele><time>2025-04-20T11:36:04Z</time></trkpt><trkpt lat="42.787192" lon="-4.299188"><ele>940.469</ele><time>2025-04-20T11:36:11Z</time></trkpt><trkpt lat="42.787185" lon="-4.299185"><ele>940.571</ele><time>2025-04-20T11:36:12Z</time></trkpt><trkpt lat="42.787201" lon="-4.299177"><ele>940.341</ele><time>2025-04-20T11:36:18Z</time></trkpt><trkpt lat="42.787204" lon="-4.299190"><ele>940.315</ele><time>2025-04-20T11:36:27Z</time></trkpt><trkpt lat="42.787189" lon="-4.299346"><ele>941.009</ele><time>2025-04-20T11:36:39Z</time></trkpt><trkpt lat="42.787201" lon="-4.299421"><ele>941.119</ele><time>2025-04-20T11:36:44Z</time></trkpt><trkpt lat="42.787195" lon="-4.299541"><ele>941.648</ele><time>2025-04-20T11:36:53Z</time></trkpt><trkpt lat="42.787221" lon="-4.299609"><ele>941.672</ele><time>2025-04-20T11:37:04Z</time></trkpt><trkpt lat="42.787294" lon="-4.299688"><ele>941.133</ele><time>2025-04-20T11:37:09Z</time></trkpt><trkpt lat="42.787364" lon="-4.299754"><ele>940.682</ele><time>2025-04-20T11:37:17Z</time></trkpt><trkpt lat="42.787389" lon="-4.299765"><ele>940.498</ele><time>2025-04-20T11:37:19Z</time></trkpt><trkpt lat="42.787444" lon="-4.299898"><ele>940.210</ele><time>2025-04-20T11:37:30Z</time></trkpt><trkpt lat="42.787473" lon="-4.300022"><ele>940.442</ele><time>2025-04-20T11:37:39Z</time></trkpt><trkpt lat="42.787499" lon="-4.300123"><ele>940.531</ele><time>2025-04-20T11:37:47Z</time></trkpt><trkpt lat="42.787529" lon="-4.300227"><ele>940.617</ele><time>2025-04-20T11:37:58Z</time></trkpt><trkpt lat="42.787594" lon="-4.300358"><ele>940.687</ele><time>2025-04-20T11:38:08Z</time></trkpt><trkpt lat="42.787653" lon="-4.300478"><ele>940.615</ele><time>2025-04-20T11:38:17Z</time></trkpt><trkpt lat="42.787667" lon="-4.300550"><ele>940.809</ele><time>2025-04-20T11:38:23Z</time></trkpt><trkpt lat="42.787690" lon="-4.300666"><ele>941.093</ele><time>2025-04-20T11:38:34Z</time></trkpt><trkpt lat="42.787700" lon="-4.300835"><ele>941.612</ele><time>2025-04-20T11:38:47Z</time></trkpt><trkpt lat="42.787722" lon="-4.300999"><ele>942.086</ele><time>2025-04-20T11:39:00Z</time></trkpt><trkpt lat="42.787703" lon="-4.301063"><ele>942.497</ele><time>2025-04-20T11:39:09Z</time></trkpt><trkpt lat="42.787701" lon="-4.301080"><ele>942.456</ele><time>2025-04-20T11:39:12Z</time></trkpt><trkpt lat="42.787720" lon="-4.301138"><ele>942.442</ele><time>2025-04-20T11:39:20Z</time></trkpt><trkpt lat="42.787736" lon="-4.301188"><ele>942.384</ele><time>2025-04-20T11:39:25Z</time></trkpt><trkpt lat="42.787740" lon="-4.301215"><ele>942.326</ele><time>2025-04-20T11:39:27Z</time></trkpt><trkpt lat="42.787757" lon="-4.301334"><ele>942.235</ele><time>2025-04-20T11:39:40Z</time></trkpt><trkpt lat="42.787772" lon="-4.301299"><ele>942.093</ele><time>2025-04-20T11:39:54Z</time></trkpt><trkpt lat="42.787783" lon="-4.301330"><ele>941.965</ele><time>2025-04-20T11:40:02Z</time></trkpt><trkpt lat="42.787786" lon="-4.301356"><ele>941.921</ele><time>2025-04-20T11:40:09Z</time></trkpt><trkpt lat="42.787792" lon="-4.301382"><ele>941.809</ele><time>2025-04-20T11:40:11Z</time></trkpt><trkpt lat="42.787813" lon="-4.301469"><ele>941.911</ele><time>2025-04-20T11:40:18Z</time></trkpt><trkpt lat="42.787848" lon="-4.301601"><ele>942.050</ele><time>2025-04-20T11:40:29Z</time></trkpt><trkpt lat="42.787872" lon="-4.301630"><ele>941.994</ele><time>2025-04-20T11:40:37Z</time></trkpt><trkpt lat="42.787898" lon="-4.301756"><ele>941.745</ele><time>2025-04-20T11:40:46Z</time></trkpt><trkpt lat="42.787916" lon="-4.301867"><ele>941.524</ele><time>2025-04-20T11:40:54Z</time></trkpt><trkpt lat="42.787946" lon="-4.301915"><ele>941.290</ele><time>2025-04-20T11:41:05Z</time></trkpt><trkpt lat="42.787946" lon="-4.301922"><ele>941.212</ele><time>2025-04-20T11:41:15Z</time></trkpt><trkpt lat="42.787943" lon="-4.301918"><ele>941.234</ele><time>2025-04-20T11:41:26Z</time></trkpt><trkpt lat="42.787942" lon="-4.301918"><ele>941.233</ele><time>2025-04-20T11:41:40Z</time></trkpt><trkpt lat="42.787943" lon="-4.301917"><ele>941.288</ele><time>2025-04-20T11:41:49Z</time></trkpt><trkpt lat="42.787938" lon="-4.301968"><ele>941.424</ele><time>2025-04-20T11:42:00Z</time></trkpt><trkpt lat="42.787936" lon="-4.302008"><ele>941.526</ele><time>2025-04-20T11:42:03Z</time></trkpt><trkpt lat="42.787946" lon="-4.302123"><ele>941.809</ele><time>2025-04-20T11:42:13Z</time></trkpt><trkpt lat="42.787960" lon="-4.302185"><ele>941.940</ele><time>2025-04-20T11:42:23Z</time></trkpt><trkpt lat="42.787956" lon="-4.302196"><ele>942.099</ele><time>2025-04-20T11:42:34Z</time></trkpt><trkpt lat="42.787957" lon="-4.302251"><ele>942.173</ele><time>2025-04-20T11:42:42Z</time></trkpt><trkpt lat="42.787964" lon="-4.302287"><ele>942.134</ele><time>2025-04-20T11:42:47Z</time></trkpt><trkpt lat="42.787991" lon="-4.302318"><ele>942.083</ele><time>2025-04-20T11:42:55Z</time></trkpt><trkpt lat="42.787991" lon="-4.302308"><ele>941.969</ele><time>2025-04-20T11:43:03Z</time></trkpt><trkpt lat="42.787995" lon="-4.302316"><ele>941.961</ele><time>2025-04-20T11:43:04Z</time></trkpt><trkpt lat="42.788012" lon="-4.302350"><ele>941.943</ele><time>2025-04-20T11:43:07Z</time></trkpt><trkpt lat="42.788046" lon="-4.302503"><ele>942.142</ele><time>2025-04-20T11:43:19Z</time></trkpt><trkpt lat="42.788064" lon="-4.302638"><ele>942.421</ele><time>2025-04-20T11:43:29Z</time></trkpt><trkpt lat="42.788094" lon="-4.302762"><ele>942.741</ele><time>2025-04-20T11:43:39Z</time></trkpt><trkpt lat="42.788131" lon="-4.302836"><ele>942.505</ele><time>2025-04-20T11:43:48Z</time></trkpt><trkpt lat="42.788141" lon="-4.302900"><ele>942.509</ele><time>2025-04-20T11:44:01Z</time></trkpt><trkpt lat="42.788076" lon="-4.302921"><ele>942.944</ele><time>2025-04-20T11:44:14Z</time></trkpt><trkpt lat="42.788028" lon="-4.302929"><ele>943.263</ele><time>2025-04-20T11:44:23Z</time></trkpt><trkpt lat="42.787896" lon="-4.302927"><ele>944.177</ele><time>2025-04-20T11:44:38Z</time></trkpt><trkpt lat="42.787760" lon="-4.302992"><ele>945.248</ele><time>2025-04-20T11:44:47Z</time></trkpt><trkpt lat="42.787656" lon="-4.303017"><ele>946.347</ele><time>2025-04-20T11:44:56Z</time></trkpt><trkpt lat="42.787523" lon="-4.303013"><ele>947.893</ele><time>2025-04-20T11:45:08Z</time></trkpt><trkpt lat="42.787427" lon="-4.303009"><ele>948.835</ele><time>2025-04-20T11:45:18Z</time></trkpt><trkpt lat="42.787344" lon="-4.303001"><ele>949.757</ele><time>2025-04-20T11:45:27Z</time></trkpt><trkpt lat="42.787277" lon="-4.303000"><ele>950.416</ele><time>2025-04-20T11:45:36Z</time></trkpt><trkpt lat="42.787175" lon="-4.302987"><ele>951.324</ele><time>2025-04-20T11:45:47Z</time></trkpt><trkpt lat="42.787046" lon="-4.302922"><ele>952.304</ele><time>2025-04-20T11:46:03Z</time></trkpt><trkpt lat="42.786990" lon="-4.302922"><ele>952.714</ele><time>2025-04-20T11:46:08Z</time></trkpt><trkpt lat="42.786976" lon="-4.302904"><ele>952.809</ele><time>2025-04-20T11:46:10Z</time></trkpt><trkpt lat="42.786963" lon="-4.302901"><ele>952.964</ele><time>2025-04-20T11:46:11Z</time></trkpt><trkpt lat="42.786937" lon="-4.302797"><ele>953.093</ele><time>2025-04-20T11:46:21Z</time></trkpt><trkpt lat="42.786940" lon="-4.302701"><ele>953.057</ele><time>2025-04-20T11:46:28Z</time></trkpt><trkpt lat="42.786939" lon="-4.302515"><ele>953.028</ele><time>2025-04-20T11:46:41Z</time></trkpt><trkpt lat="42.786935" lon="-4.302353"><ele>952.527</ele><time>2025-04-20T11:46:52Z</time></trkpt><trkpt lat="42.786949" lon="-4.302201"><ele>951.963</ele><time>2025-04-20T11:47:04Z</time></trkpt><trkpt lat="42.786945" lon="-4.302006"><ele>951.235</ele><time>2025-04-20T11:47:17Z</time></trkpt><trkpt lat="42.786958" lon="-4.301836"><ele>950.597</ele><time>2025-04-20T11:47:29Z</time></trkpt><trkpt lat="42.786892" lon="-4.301729"><ele>950.776</ele><time>2025-04-20T11:47:39Z</time></trkpt><trkpt lat="42.786865" lon="-4.301748"><ele>951.125</ele><time>2025-04-20T11:47:48Z</time></trkpt><trkpt lat="42.786775" lon="-4.301699"><ele>951.926</ele><time>2025-04-20T11:48:00Z</time></trkpt><trkpt lat="42.786647" lon="-4.301609"><ele>952.708</ele><time>2025-04-20T11:48:15Z</time></trkpt><trkpt lat="42.786578" lon="-4.301594"><ele>952.509</ele><time>2025-04-20T11:48:23Z</time></trkpt><trkpt lat="42.786528" lon="-4.301584"><ele>952.414</ele><time>2025-04-20T11:48:28Z</time></trkpt><trkpt lat="42.786391" lon="-4.301547"><ele>952.013</ele><time>2025-04-20T11:48:41Z</time></trkpt><trkpt lat="42.786331" lon="-4.301544"><ele>951.597</ele><time>2025-04-20T11:48:47Z</time></trkpt><trkpt lat="42.786311" lon="-4.301571"><ele>951.358</ele><time>2025-04-20T11:48:49Z</time></trkpt><trkpt lat="42.786295" lon="-4.301664"><ele>951.377</ele><time>2025-04-20T11:49:07Z</time></trkpt><trkpt lat="42.786305" lon="-4.301693"><ele>951.433</ele><time>2025-04-20T11:49:20Z</time></trkpt><trkpt lat="42.786308" lon="-4.301734"><ele>951.435</ele><time>2025-04-20T11:49:37Z</time></trkpt><trkpt lat="42.786314" lon="-4.301720"><ele>951.537</ele><time>2025-04-20T11:49:57Z</time></trkpt><trkpt lat="42.786302" lon="-4.301718"><ele>951.456</ele><time>2025-04-20T11:50:10Z</time></trkpt><trkpt lat="42.786288" lon="-4.301718"><ele>951.325</ele><time>2025-04-20T12:00:20Z</time></trkpt><trkpt lat="42.786285" lon="-4.301706"><ele>951.326</ele><time>2025-04-20T12:00:44Z</time></trkpt><trkpt lat="42.786271" lon="-4.301671"><ele>951.208</ele><time>2025-04-20T12:01:02Z</time></trkpt><trkpt lat="42.786256" lon="-4.301671"><ele>951.009</ele><time>2025-04-20T12:01:25Z</time></trkpt><trkpt lat="42.786245" lon="-4.301671"><ele>951.024</ele><time>2025-04-20T12:01:48Z</time></trkpt><trkpt lat="42.786215" lon="-4.301764"><ele>950.763</ele><time>2025-04-20T12:02:07Z</time></trkpt><trkpt lat="42.786226" lon="-4.301797"><ele>950.837</ele><time>2025-04-20T12:02:43Z</time></trkpt><trkpt lat="42.786217" lon="-4.301791"><ele>950.878</ele><time>2025-04-20T12:03:02Z</time></trkpt><trkpt lat="42.786207" lon="-4.301798"><ele>950.727</ele><time>2025-04-20T12:03:20Z</time></trkpt><trkpt lat="42.786220" lon="-4.301824"><ele>950.843</ele><time>2025-04-20T12:03:40Z</time></trkpt><trkpt lat="42.786248" lon="-4.301802"><ele>951.095</ele><time>2025-04-20T12:03:59Z</time></trkpt><trkpt lat="42.786293" lon="-4.301753"><ele>951.357</ele><time>2025-04-20T12:04:18Z</time></trkpt><trkpt lat="42.786284" lon="-4.301699"><ele>951.256</ele><time>2025-04-20T12:04:38Z</time></trkpt><trkpt lat="42.786271" lon="-4.301661"><ele>951.159</ele><time>2025-04-20T12:04:46Z</time></trkpt><trkpt lat="42.786287" lon="-4.301538"><ele>951.103</ele><time>2025-04-20T12:04:54Z</time></trkpt><trkpt lat="42.786353" lon="-4.301412"><ele>951.623</ele><time>2025-04-20T12:05:05Z</time></trkpt><trkpt lat="42.786387" lon="-4.301290"><ele>951.609</ele><time>2025-04-20T12:05:16Z</time></trkpt><trkpt lat="42.786405" lon="-4.301134"><ele>951.147</ele><time>2025-04-20T12:05:29Z</time></trkpt><trkpt lat="42.786407" lon="-4.301023"><ele>951.026</ele><time>2025-04-20T12:05:39Z</time></trkpt><trkpt lat="42.786386" lon="-4.300947"><ele>951.090</ele><time>2025-04-20T12:05:49Z</time></trkpt><trkpt lat="42.786316" lon="-4.300875"><ele>950.561</ele><time>2025-04-20T12:05:59Z</time></trkpt><trkpt lat="42.786265" lon="-4.300708"><ele>949.790</ele><time>2025-04-20T12:06:13Z</time></trkpt><trkpt lat="42.786195" lon="-4.300553"><ele>948.656</ele><time>2025-04-20T12:06:29Z</time></trkpt><trkpt lat="42.786157" lon="-4.300405"><ele>948.218</ele><time>2025-04-20T12:06:41Z</time></trkpt><trkpt lat="42.786083" lon="-4.300251"><ele>947.910</ele><time>2025-04-20T12:06:55Z</time></trkpt><trkpt lat="42.785974" lon="-4.300217"><ele>947.539</ele><time>2025-04-20T12:07:08Z</time></trkpt><trkpt lat="42.785936" lon="-4.300358"><ele>947.475</ele><time>2025-04-20T12:07:20Z</time></trkpt><trkpt lat="42.785945" lon="-4.300504"><ele>947.428</ele><time>2025-04-20T12:07:31Z</time></trkpt><trkpt lat="42.785933" lon="-4.300566"><ele>947.420</ele><time>2025-04-20T12:07:42Z</time></trkpt><trkpt lat="42.785919" lon="-4.300590"><ele>947.409</ele><time>2025-04-20T12:07:58Z</time></trkpt><trkpt lat="42.785881" lon="-4.300630"><ele>947.439</ele><time>2025-04-20T12:08:09Z</time></trkpt><trkpt lat="42.785878" lon="-4.300639"><ele>947.558</ele><time>2025-04-20T12:08:12Z</time></trkpt></trkseg></trk></gpx>